Ouddorp, Netherlands
Current Conditions -  °F | °C
As of 10:55 AM on Thursday 23 Oct 2014 (Local Time) from EHRD Reporting Station
Overcast Overcast  
Wind Chill: 55°   Ceiling: 3700
Heat Index: 55°   Visibility: 6mi
Dew Point: 52°   Wind: 9mph
Humidity: 88%   Direction: 200°SSW
Pressure: 30.15"   Gusts: NA
Location:  51.81°N, 3.93°E
Report Text: EHRD 230855Z AUTO 20008KT 170V230 9999 FEW023 SCT032 OVC03713/11 Q1021 NOSIG
Loading
Personal Weather Stations






























Interactive Weather Map
Tropical Storm Tracking
New forecast layout! Learn more

10-Day Weather Forecast

Advertisements
Track Severe Weather on mobile